CYSM

Details ICAO CYSM (YSM)
Name FORT SMITH
Region Canada
Timezone America/Yellowknife (UTC-7.0)
Plans Departing 3
Arriving 5
Stats Elevation 671 ft / 205 m (AMSL)
Location 60.022810° -111.959170°
Runways 2
Magnetic Variation 14.735° E
Sunrise 2017-12-18 16:29:41 UTC / 2017-12-18 09:29:41 Local
Sunset 2017-12-18 22:22:13 UTC / 2017-12-18 15:22:13 Local
Advertisement - Login to hide

Runways

ID Width Length Bearing (true) Bearing (mag) Surface Threshold Offset Overrun Length
02 100 ft / 30 m 1,796 ft / 547 m 40.51° 25.77° Dirt 0 ft / 0 m 0 ft / 0 m
11 200 ft / 61 m 5,993 ft / 1,827 m 131.26° 116.52° Asphalt 0 ft / 0 m 0 ft / 0 m
20 100 ft / 30 m 1,796 ft / 547 m 220.51° 205.77° Dirt 0 ft / 0 m 0 ft / 0 m
29 200 ft / 61 m 5,993 ft / 1,827 m 311.28° 296.54° Asphalt 0 ft / 0 m 0 ft / 0 m

Map

Weather


0- 5 10 15 20 25 30 35+ Temperature / ° C

Clouds and Precipitation
Forecast for 2017-12-18 12:00 UTC. Updated 2 hours ago

Ground ~20,000 ft ~40,000 ft Winds

METAR

CYSM 181300Z 30018G25KT 2SM -SN DRSN FEW016 BKN027 OVC062 M13/M16 A2944 RMK SC1SC6SC1 VIS VRB 1-3 SLP989

TAF

TAF CYSM 181138Z 1812/1824 29010KT P6SM -SN SCT015 OVC030 TEMPO 1812/1816 2SM -SN OVC015 FM181600 31015KT P6SM BKN030 TEMPO 1816/1824 5SM -SN BKN020 RMK NXT FCST BY 181800Z

Frequencies

Unicom 122.20 MHz AIRPORT RDO
Approach 123.55 MHz YELOWKNIFE RDO
Warning: Do not use this data for real-world aviation or navigation. No guarantee of current accuracy is given.